sensor_id;sensor_type;location;lat;lon;timestamp;P1;durP1;ratioP1;P2;durP2;ratioP2
47575;SDS011;33304;52.456;13.328;2022-11-12T00:02:42;0.70;;;0.70;;
47575;SDS011;33304;52.456;13.328;2022-11-12T00:05:28;0.83;;;0.83;;
47575;SDS011;33304;52.456;13.328;2022-11-12T00:08:14;1.13;;;0.87;;
47575;SDS011;33304;52.456;13.328;2022-11-12T00:11:00;0.60;;;0.60;;
47575;SDS011;33304;52.456;13.328;2022-11-12T00:13:47;0.50;;;0.50;;
47575;SDS011;33304;52.456;13.328;2022-11-12T00:16:33;0.80;;;0.80;;
47575;SDS011;33304;52.456;13.328;2022-11-12T00:19:20;1.00;;;0.67;;
47575;SDS011;33304;52.456;13.328;2022-11-12T00:22:06;0.97;;;0.97;;
47575;SDS011;33304;52.456;13.328;2022-11-12T00:24:52;0.80;;;0.80;;
47575;SDS011;33304;52.456;13.328;2022-11-12T00:27:38;0.77;;;0.77;;
47575;SDS011;33304;52.456;13.328;2022-11-12T00:30:24;1.40;;;0.90;;
47575;SDS011;33304;52.456;13.328;2022-11-12T00:33:09;0.60;;;0.60;;
47575;SDS011;33304;52.456;13.328;2022-11-12T00:35:59;0.97;;;0.97;;
47575;SDS011;33304;52.456;13.328;2022-11-12T00:38:44;0.97;;;0.97;;
47575;SDS011;33304;52.456;13.328;2022-11-12T00:41:30;0.70;;;0.70;;
47575;SDS011;33304;52.456;13.328;2022-11-12T00:44:16;1.03;;;0.97;;
47575;SDS011;33304;52.456;13.328;2022-11-12T00:47:02;0.80;;;0.80;;
47575;SDS011;33304;52.456;13.328;2022-11-12T00:49:48;1.30;;;1.00;;
47575;SDS011;33304;52.456;13.328;2022-11-12T00:52:35;0.60;;;0.60;;
47575;SDS011;33304;52.456;13.328;2022-11-12T00:55:21;1.03;;;0.70;;
47575;SDS011;33304;52.456;13.328;2022-11-12T00:58:07;0.83;;;0.83;;
47575;SDS011;33304;52.456;13.328;2022-11-12T01:00:53;0.70;;;0.70;;
47575;SDS011;33304;52.456;13.328;2022-11-12T01:03:39;1.40;;;1.30;;
47575;SDS011;33304;52.456;13.328;2022-11-12T01:06:26;1.20;;;1.10;;
47575;SDS011;33304;52.456;13.328;2022-11-12T01:09:12;0.90;;;0.90;;
47575;SDS011;33304;52.456;13.328;2022-11-12T01:11:58;0.80;;;0.80;;
47575;SDS011;33304;52.456;13.328;2022-11-12T01:14:44;1.27;;;0.97;;
47575;SDS011;33304;52.456;13.328;2022-11-12T01:17:29;0.90;;;0.90;;
47575;SDS011;33304;52.456;13.328;2022-11-12T01:20:15;0.93;;;0.90;;
47575;SDS011;33304;52.456;13.328;2022-11-12T01:23:00;0.80;;;0.73;;
47575;SDS011;33304;52.456;13.328;2022-11-12T01:25:47;0.80;;;0.80;;
47575;SDS011;33304;52.456;13.328;2022-11-12T01:28:32;0.83;;;0.83;;
47575;SDS011;33304;52.456;13.328;2022-11-12T01:31:19;0.60;;;0.60;;
47575;SDS011;33304;52.456;13.328;2022-11-12T01:34:06;1.00;;;0.87;;
47575;SDS011;33304;52.456;13.328;2022-11-12T01:36:53;1.07;;;1.03;;
47575;SDS011;33304;52.456;13.328;2022-11-12T01:39:39;1.70;;;1.03;;
47575;SDS011;33304;52.456;13.328;2022-11-12T01:42:26;0.70;;;0.70;;
47575;SDS011;33304;52.456;13.328;2022-11-12T01:45:13;0.80;;;0.80;;
47575;SDS011;33304;52.456;13.328;2022-11-12T01:47:59;1.47;;;1.37;;
47575;SDS011;33304;52.456;13.328;2022-11-12T01:50:46;1.20;;;0.73;;
47575;SDS011;33304;52.456;13.328;2022-11-12T01:53:33;0.97;;;0.90;;
47575;SDS011;33304;52.456;13.328;2022-11-12T01:56:23;0.93;;;0.93;;
47575;SDS011;33304;52.456;13.328;2022-11-12T01:59:13;0.60;;;0.60;;
47575;SDS011;33304;52.456;13.328;2022-11-12T02:02:04;1.00;;;1.00;;
47575;SDS011;33304;52.456;13.328;2022-11-12T02:04:50;0.97;;;0.93;;
47575;SDS011;33304;52.456;13.328;2022-11-12T02:07:37;0.60;;;0.60;;
47575;SDS011;33304;52.456;13.328;2022-11-12T02:10:25;0.60;;;0.60;;
47575;SDS011;33304;52.456;13.328;2022-11-12T02:13:11;1.47;;;0.97;;
47575;SDS011;33304;52.456;13.328;2022-11-12T02:16:16;0.57;;;0.57;;
47575;SDS011;33304;52.456;13.328;2022-11-12T02:19:02;0.70;;;0.70;;
47575;SDS011;33304;52.456;13.328;2022-11-12T02:21:52;1.53;;;0.93;;
47575;SDS011;33304;52.456;13.328;2022-11-12T02:24:37;0.90;;;0.90;;
47575;SDS011;33304;52.456;13.328;2022-11-12T02:27:23;0.80;;;0.80;;
47575;SDS011;33304;52.456;13.328;2022-11-12T02:30:09;0.60;;;0.60;;
47575;SDS011;33304;52.456;13.328;2022-11-12T02:32:56;0.77;;;0.70;;
47575;SDS011;33304;52.456;13.328;2022-11-12T02:35:42;0.90;;;0.90;;
47575;SDS011;33304;52.456;13.328;2022-11-12T02:38:29;0.70;;;0.70;;
47575;SDS011;33304;52.456;13.328;2022-11-12T02:41:15;0.70;;;0.70;;
47575;SDS011;33304;52.456;13.328;2022-11-12T02:44:01;0.63;;;0.63;;
47575;SDS011;33304;52.456;13.328;2022-11-12T02:46:47;0.60;;;0.60;;
47575;SDS011;33304;52.456;13.328;2022-11-12T02:49:32;0.70;;;0.70;;
47575;SDS011;33304;52.456;13.328;2022-11-12T02:52:18;1.10;;;1.00;;
47575;SDS011;33304;52.456;13.328;2022-11-12T02:55:06;1.40;;;0.67;;
47575;SDS011;33304;52.456;13.328;2022-11-12T02:57:55;1.03;;;0.93;;
47575;SDS011;33304;52.456;13.328;2022-11-12T03:00:41;0.43;;;0.43;;
47575;SDS011;33304;52.456;13.328;2022-11-12T03:03:27;1.33;;;0.80;;
47575;SDS011;33304;52.456;13.328;2022-11-12T03:06:13;1.43;;;0.87;;
47575;SDS011;33304;52.456;13.328;2022-11-12T03:08:59;0.90;;;0.70;;
47575;SDS011;33304;52.456;13.328;2022-11-12T03:11:46;0.97;;;0.70;;
47575;SDS011;33304;52.456;13.328;2022-11-12T03:14:32;0.60;;;0.60;;
47575;SDS011;33304;52.456;13.328;2022-11-12T03:17:18;0.60;;;0.60;;
47575;SDS011;33304;52.456;13.328;2022-11-12T03:20:04;0.97;;;0.97;;
47575;SDS011;33304;52.456;13.328;2022-11-12T03:22:54;1.10;;;1.10;;
47575;SDS011;33304;52.456;13.328;2022-11-12T03:25:42;2.53;;;1.00;;
47575;SDS011;33304;52.456;13.328;2022-11-12T03:28:29;0.53;;;0.53;;
47575;SDS011;33304;52.456;13.328;2022-11-12T03:31:15;0.73;;;0.73;;
47575;SDS011;33304;52.456;13.328;2022-11-12T03:34:01;1.73;;;0.80;;
47575;SDS011;33304;52.456;13.328;2022-11-12T03:36:47;0.60;;;0.60;;
47575;SDS011;33304;52.456;13.328;2022-11-12T03:39:33;0.97;;;0.97;;
47575;SDS011;33304;52.456;13.328;2022-11-12T03:42:19;0.67;;;0.67;;
47575;SDS011;33304;52.456;13.328;2022-11-12T03:45:06;0.60;;;0.60;;
47575;SDS011;33304;52.456;13.328;2022-11-12T03:47:53;0.60;;;0.60;;
47575;SDS011;33304;52.456;13.328;2022-11-12T03:50:40;0.80;;;0.80;;
47575;SDS011;33304;52.456;13.328;2022-11-12T03:53:26;0.80;;;0.80;;
47575;SDS011;33304;52.456;13.328;2022-11-12T03:56:12;1.00;;;1.00;;
47575;SDS011;33304;52.456;13.328;2022-11-12T03:58:58;0.73;;;0.73;;
47575;SDS011;33304;52.456;13.328;2022-11-12T04:01:45;0.80;;;0.80;;
47575;SDS011;33304;52.456;13.328;2022-11-12T04:04:31;0.77;;;0.77;;
47575;SDS011;33304;52.456;13.328;2022-11-12T04:07:30;0.70;;;0.70;;
47575;SDS011;33304;52.456;13.328;2022-11-12T04:10:34;0.90;;;0.90;;
47575;SDS011;33304;52.456;13.328;2022-11-12T04:13:20;0.80;;;0.80;;
47575;SDS011;33304;52.456;13.328;2022-11-12T04:16:12;0.77;;;0.77;;
47575;SDS011;33304;52.456;13.328;2022-11-12T04:19:19;0.90;;;0.90;;
47575;SDS011;33304;52.456;13.328;2022-11-12T04:22:22;0.50;;;0.50;;
47575;SDS011;33304;52.456;13.328;2022-11-12T04:25:08;0.70;;;0.70;;
47575;SDS011;33304;52.456;13.328;2022-11-12T04:28:11;0.80;;;0.80;;
47575;SDS011;33304;52.456;13.328;2022-11-12T04:30:57;2.10;;;0.77;;
47575;SDS011;33304;52.456;13.328;2022-11-12T04:33:42;0.70;;;0.70;;
47575;SDS011;33304;52.456;13.328;2022-11-12T04:36:29;0.83;;;0.83;;
47575;SDS011;33304;52.456;13.328;2022-11-12T04:39:15;12.50;;;0.90;;
47575;SDS011;33304;52.456;13.328;2022-11-12T04:42:01;0.70;;;0.70;;
47575;SDS011;33304;52.456;13.328;2022-11-12T04:45:05;0.60;;;0.60;;
47575;SDS011;33304;52.456;13.328;2022-11-12T04:47:52;0.67;;;0.67;;
47575;SDS011;33304;52.456;13.328;2022-11-12T04:50:38;0.70;;;0.70;;
47575;SDS011;33304;52.456;13.328;2022-11-12T04:53:25;0.87;;;0.87;;
47575;SDS011;33304;52.456;13.328;2022-11-12T04:56:13;0.70;;;0.70;;
47575;SDS011;33304;52.456;13.328;2022-11-12T04:58:59;1.90;;;1.47;;
47575;SDS011;33304;52.456;13.328;2022-11-12T05:01:45;0.80;;;0.80;;
47575;SDS011;33304;52.456;13.328;2022-11-12T05:04:30;0.80;;;0.80;;
47575;SDS011;33304;52.456;13.328;2022-11-12T05:07:16;0.67;;;0.67;;
47575;SDS011;33304;52.456;13.328;2022-11-12T05:10:04;0.70;;;0.70;;
47575;SDS011;33304;52.456;13.328;2022-11-12T05:12:50;0.67;;;0.67;;
47575;SDS011;33304;52.456;13.328;2022-11-12T05:15:36;1.10;;;1.00;;
47575;SDS011;33304;52.456;13.328;2022-11-12T05:18:22;0.70;;;0.70;;
47575;SDS011;33304;52.456;13.328;2022-11-12T05:21:08;0.73;;;0.73;;
47575;SDS011;33304;52.456;13.328;2022-11-12T05:24:07;0.57;;;0.57;;
47575;SDS011;33304;52.456;13.328;2022-11-12T05:26:54;0.90;;;0.90;;
47575;SDS011;33304;52.456;13.328;2022-11-12T05:29:40;0.77;;;0.70;;
47575;SDS011;33304;52.456;13.328;2022-11-12T05:32:26;0.57;;;0.57;;
47575;SDS011;33304;52.456;13.328;2022-11-12T05:35:12;0.90;;;0.73;;
47575;SDS011;33304;52.456;13.328;2022-11-12T05:37:58;0.50;;;0.50;;
47575;SDS011;33304;52.456;13.328;2022-11-12T05:40:44;0.53;;;0.53;;
47575;SDS011;33304;52.456;13.328;2022-11-12T05:43:31;0.93;;;0.93;;
47575;SDS011;33304;52.456;13.328;2022-11-12T05:46:17;2.00;;;0.80;;
47575;SDS011;33304;52.456;13.328;2022-11-12T05:49:03;0.70;;;0.70;;
47575;SDS011;33304;52.456;13.328;2022-11-12T05:51:48;1.07;;;0.97;;
47575;SDS011;33304;52.456;13.328;2022-11-12T05:54:34;1.77;;;1.57;;
47575;SDS011;33304;52.456;13.328;2022-11-12T05:57:20;0.80;;;0.80;;
47575;SDS011;33304;52.456;13.328;2022-11-12T06:00:08;0.70;;;0.70;;
47575;SDS011;33304;52.456;13.328;2022-11-12T06:02:55;1.17;;;0.80;;
47575;SDS011;33304;52.456;13.328;2022-11-12T06:05:41;0.87;;;0.80;;
47575;SDS011;33304;52.456;13.328;2022-11-12T06:08:27;0.90;;;0.80;;
47575;SDS011;33304;52.456;13.328;2022-11-12T06:11:13;0.60;;;0.60;;
47575;SDS011;33304;52.456;13.328;2022-11-12T06:14:00;3.80;;;1.27;;
47575;SDS011;33304;52.456;13.328;2022-11-12T06:16:48;0.67;;;0.67;;
47575;SDS011;33304;52.456;13.328;2022-11-12T06:19:33;1.10;;;1.10;;
47575;SDS011;33304;52.456;13.328;2022-11-12T06:22:19;0.60;;;0.60;;
47575;SDS011;33304;52.456;13.328;2022-11-12T06:25:05;0.60;;;0.60;;
47575;SDS011;33304;52.456;13.328;2022-11-12T06:27:51;0.60;;;0.60;;
47575;SDS011;33304;52.456;13.328;2022-11-12T06:30:37;0.87;;;0.87;;
47575;SDS011;33304;52.456;13.328;2022-11-12T06:33:25;0.90;;;0.90;;
47575;SDS011;33304;52.456;13.328;2022-11-12T06:36:11;0.53;;;0.53;;
47575;SDS011;33304;52.456;13.328;2022-11-12T06:38:59;0.70;;;0.70;;
47575;SDS011;33304;52.456;13.328;2022-11-12T06:41:45;1.20;;;1.00;;
47575;SDS011;33304;52.456;13.328;2022-11-12T06:44:31;0.73;;;0.70;;
47575;SDS011;33304;52.456;13.328;2022-11-12T06:47:17;1.60;;;0.80;;
47575;SDS011;33304;52.456;13.328;2022-11-12T06:50:04;0.90;;;0.67;;
47575;SDS011;33304;52.456;13.328;2022-11-12T06:52:50;0.70;;;0.70;;
47575;SDS011;33304;52.456;13.328;2022-11-12T06:55:42;0.80;;;0.80;;
47575;SDS011;33304;52.456;13.328;2022-11-12T06:58:28;0.73;;;0.73;;
47575;SDS011;33304;52.456;13.328;2022-11-12T07:01:15;0.60;;;0.60;;
47575;SDS011;33304;52.456;13.328;2022-11-12T07:04:01;0.67;;;0.67;;
47575;SDS011;33304;52.456;13.328;2022-11-12T07:06:49;0.80;;;0.80;;
47575;SDS011;33304;52.456;13.328;2022-11-12T07:09:35;0.60;;;0.60;;
47575;SDS011;33304;52.456;13.328;2022-11-12T07:12:20;0.50;;;0.50;;
47575;SDS011;33304;52.456;13.328;2022-11-12T07:15:06;1.13;;;0.97;;
47575;SDS011;33304;52.456;13.328;2022-11-12T07:17:52;0.70;;;0.70;;
47575;SDS011;33304;52.456;13.328;2022-11-12T07:20:38;0.50;;;0.50;;
47575;SDS011;33304;52.456;13.328;2022-11-12T07:23:25;0.63;;;0.63;;
47575;SDS011;33304;52.456;13.328;2022-11-12T07:26:12;0.70;;;0.70;;
47575;SDS011;33304;52.456;13.328;2022-11-12T07:28:59;0.80;;;0.80;;
47575;SDS011;33304;52.456;13.328;2022-11-12T07:31:45;0.80;;;0.80;;
47575;SDS011;33304;52.456;13.328;2022-11-12T07:34:31;2.20;;;1.20;;
47575;SDS011;33304;52.456;13.328;2022-11-12T07:37:17;0.80;;;0.80;;
47575;SDS011;33304;52.456;13.328;2022-11-12T07:40:04;0.93;;;0.93;;
47575;SDS011;33304;52.456;13.328;2022-11-12T07:42:50;1.53;;;1.30;;
47575;SDS011;33304;52.456;13.328;2022-11-12T07:45:36;1.10;;;1.00;;
47575;SDS011;33304;52.456;13.328;2022-11-12T07:48:22;1.10;;;0.70;;
47575;SDS011;33304;52.456;13.328;2022-11-12T07:51:13;0.80;;;0.80;;
47575;SDS011;33304;52.456;13.328;2022-11-12T07:54:00;0.70;;;0.70;;
47575;SDS011;33304;52.456;13.328;2022-11-12T07:56:48;0.80;;;0.80;;
47575;SDS011;33304;52.456;13.328;2022-11-12T07:59:34;1.30;;;1.20;;
47575;SDS011;33304;52.456;13.328;2022-11-12T08:02:20;1.20;;;1.10;;
47575;SDS011;33304;52.456;13.328;2022-11-12T08:05:06;0.80;;;0.80;;
47575;SDS011;33304;52.456;13.328;2022-11-12T08:07:53;1.73;;;1.10;;
47575;SDS011;33304;52.456;13.328;2022-11-12T08:10:39;1.13;;;1.03;;
47575;SDS011;33304;52.456;13.328;2022-11-12T08:13:27;0.73;;;0.73;;
47575;SDS011;33304;52.456;13.328;2022-11-12T08:16:13;1.17;;;0.97;;
47575;SDS011;33304;52.456;13.328;2022-11-12T08:18:59;1.03;;;0.90;;
47575;SDS011;33304;52.456;13.328;2022-11-12T08:21:44;0.93;;;0.90;;
47575;SDS011;33304;52.456;13.328;2022-11-12T08:24:30;1.10;;;1.00;;
47575;SDS011;33304;52.456;13.328;2022-11-12T08:27:16;8.00;;;1.87;;
47575;SDS011;33304;52.456;13.328;2022-11-12T08:30:03;0.83;;;0.83;;
47575;SDS011;33304;52.456;13.328;2022-11-12T08:32:54;0.90;;;0.90;;
47575;SDS011;33304;52.456;13.328;2022-11-12T08:35:40;1.03;;;1.00;;
47575;SDS011;33304;52.456;13.328;2022-11-12T08:38:26;1.37;;;1.10;;
47575;SDS011;33304;52.456;13.328;2022-11-12T08:41:12;0.80;;;0.80;;
47575;SDS011;33304;52.456;13.328;2022-11-12T08:44:00;0.80;;;0.80;;
47575;SDS011;33304;52.456;13.328;2022-11-12T08:46:48;1.77;;;1.53;;
47575;SDS011;33304;52.456;13.328;2022-11-12T08:49:34;0.93;;;0.90;;
47575;SDS011;33304;52.456;13.328;2022-11-12T08:52:20;0.70;;;0.70;;
47575;SDS011;33304;52.456;13.328;2022-11-12T08:55:06;1.20;;;1.00;;
47575;SDS011;33304;52.456;13.328;2022-11-12T08:57:53;1.40;;;1.30;;
47575;SDS011;33304;52.456;13.328;2022-11-12T09:00:40;2.73;;;1.20;;
47575;SDS011;33304;52.456;13.328;2022-11-12T09:03:28;1.10;;;1.00;;
47575;SDS011;33304;52.456;13.328;2022-11-12T09:06:13;1.40;;;1.30;;
47575;SDS011;33304;52.456;13.328;2022-11-12T09:08:59;1.20;;;1.10;;
47575;SDS011;33304;52.456;13.328;2022-11-12T09:11:45;0.80;;;0.80;;
47575;SDS011;33304;52.456;13.328;2022-11-12T09:14:30;1.37;;;1.27;;
47575;SDS011;33304;52.456;13.328;2022-11-12T09:17:16;1.00;;;0.90;;
47575;SDS011;33304;52.456;13.328;2022-11-12T09:20:03;0.93;;;0.93;;
47575;SDS011;33304;52.456;13.328;2022-11-12T09:22:50;1.30;;;1.00;;
47575;SDS011;33304;52.456;13.328;2022-11-12T09:25:36;1.57;;;1.30;;
47575;SDS011;33304;52.456;13.328;2022-11-12T09:28:23;1.47;;;1.33;;
47575;SDS011;33304;52.456;13.328;2022-11-12T09:31:09;2.20;;;1.50;;
47575;SDS011;33304;52.456;13.328;2022-11-12T09:33:54;1.30;;;1.20;;
47575;SDS011;33304;52.456;13.328;2022-11-12T09:36:41;0.83;;;0.83;;
47575;SDS011;33304;52.456;13.328;2022-11-12T09:39:27;1.27;;;1.10;;
47575;SDS011;33304;52.456;13.328;2022-11-12T09:42:14;2.50;;;1.97;;
47575;SDS011;33304;52.456;13.328;2022-11-12T09:45:05;1.60;;;1.43;;
47575;SDS011;33304;52.456;13.328;2022-11-12T09:48:09;1.67;;;1.40;;
47575;SDS011;33304;52.456;13.328;2022-11-12T09:50:59;2.60;;;1.80;;
47575;SDS011;33304;52.456;13.328;2022-11-12T09:53:51;1.87;;;1.77;;
47575;SDS011;33304;52.456;13.328;2022-11-12T09:56:39;1.67;;;1.57;;
47575;SDS011;33304;52.456;13.328;2022-11-12T09:59:27;1.40;;;1.30;;
47575;SDS011;33304;52.456;13.328;2022-11-12T10:02:18;3.03;;;2.37;;
47575;SDS011;33304;52.456;13.328;2022-11-12T10:05:14;2.63;;;2.17;;
47575;SDS011;33304;52.456;13.328;2022-11-12T10:08:19;2.77;;;1.90;;
47575;SDS011;33304;52.456;13.328;2022-11-12T10:11:21;3.37;;;2.37;;
47575;SDS011;33304;52.456;13.328;2022-11-12T10:14:51;2.40;;;2.20;;
47575;SDS011;33304;52.456;13.328;2022-11-12T10:18:07;3.07;;;2.77;;
47575;SDS011;33304;52.456;13.328;2022-11-12T10:20:56;3.37;;;2.03;;
47575;SDS011;33304;52.456;13.328;2022-11-12T10:23:47;3.53;;;2.30;;
47575;SDS011;33304;52.456;13.328;2022-11-12T10:26:37;2.30;;;2.10;;
47575;SDS011;33304;52.456;13.328;2022-11-12T10:29:26;2.70;;;2.23;;
47575;SDS011;33304;52.456;13.328;2022-11-12T10:32:18;2.80;;;2.27;;
47575;SDS011;33304;52.456;13.328;2022-11-12T10:35:04;2.93;;;2.10;;
47575;SDS011;33304;52.456;13.328;2022-11-12T10:37:50;3.70;;;2.80;;
47575;SDS011;33304;52.456;13.328;2022-11-12T10:40:41;2.70;;;2.50;;
47575;SDS011;33304;52.456;13.328;2022-11-12T10:43:28;2.23;;;2.03;;
47575;SDS011;33304;52.456;13.328;2022-11-12T10:46:16;2.37;;;2.17;;
47575;SDS011;33304;52.456;13.328;2022-11-12T10:49:04;3.53;;;2.40;;
47575;SDS011;33304;52.456;13.328;2022-11-12T10:51:53;3.17;;;2.57;;
47575;SDS011;33304;52.456;13.328;2022-11-12T10:54:40;2.73;;;2.53;;
47575;SDS011;33304;52.456;13.328;2022-11-12T10:57:26;2.23;;;2.03;;
47575;SDS011;33304;52.456;13.328;2022-11-12T11:00:18;2.67;;;2.17;;
47575;SDS011;33304;52.456;13.328;2022-11-12T11:03:06;3.70;;;1.80;;
47575;SDS011;33304;52.456;13.328;2022-11-12T11:06:16;3.20;;;2.40;;
47575;SDS011;33304;52.456;13.328;2022-11-12T11:09:13;2.60;;;2.40;;
47575;SDS011;33304;52.456;13.328;2022-11-12T11:12:04;3.83;;;2.27;;
47575;SDS011;33304;52.456;13.328;2022-11-12T11:15:06;3.17;;;2.30;;
47575;SDS011;33304;52.456;13.328;2022-11-12T11:18:03;3.20;;;1.97;;
47575;SDS011;33304;52.456;13.328;2022-11-12T11:20:50;2.03;;;1.87;;
47575;SDS011;33304;52.456;13.328;2022-11-12T11:23:44;3.30;;;1.80;;
47575;SDS011;33304;52.456;13.328;2022-11-12T11:26:37;1.87;;;1.43;;
47575;SDS011;33304;52.456;13.328;2022-11-12T11:29:40;2.63;;;2.07;;
47575;SDS011;33304;52.456;13.328;2022-11-12T11:32:41;4.13;;;2.10;;
47575;SDS011;33304;52.456;13.328;2022-11-12T11:35:45;2.73;;;1.50;;
47575;SDS011;33304;52.456;13.328;2022-11-12T11:38:41;2.30;;;1.83;;
47575;SDS011;33304;52.456;13.328;2022-11-12T11:41:39;3.03;;;1.70;;
47575;SDS011;33304;52.456;13.328;2022-11-12T11:44:39;1.70;;;1.60;;
47575;SDS011;33304;52.456;13.328;2022-11-12T11:47:31;2.10;;;1.90;;
47575;SDS011;33304;52.456;13.328;2022-11-12T11:50:26;1.73;;;1.57;;
47575;SDS011;33304;52.456;13.328;2022-11-12T11:53:17;2.47;;;1.60;;
47575;SDS011;33304;52.456;13.328;2022-11-12T11:56:11;1.47;;;1.37;;
47575;SDS011;33304;52.456;13.328;2022-11-12T11:59:10;2.10;;;1.80;;
47575;SDS011;33304;52.456;13.328;2022-11-12T12:02:17;1.43;;;1.33;;
47575;SDS011;33304;52.456;13.328;2022-11-12T12:05:16;1.60;;;1.30;;
47575;SDS011;33304;52.456;13.328;2022-11-12T12:08:08;1.47;;;1.37;;
47575;SDS011;33304;52.456;13.328;2022-11-12T12:11:00;1.57;;;1.40;;
47575;SDS011;33304;52.456;13.328;2022-11-12T12:13:55;1.73;;;1.63;;
47575;SDS011;33304;52.456;13.328;2022-11-12T12:17:03;1.97;;;1.77;;
47575;SDS011;33304;52.456;13.328;2022-11-12T12:20:02;2.27;;;1.87;;
47575;SDS011;33304;52.456;13.328;2022-11-12T12:22:59;2.30;;;2.10;;
47575;SDS011;33304;52.456;13.328;2022-11-12T12:25:49;2.53;;;1.50;;
47575;SDS011;33304;52.456;13.328;2022-11-12T12:28:40;2.60;;;1.83;;
47575;SDS011;33304;52.456;13.328;2022-11-12T12:31:31;1.73;;;1.63;;
47575;SDS011;33304;52.456;13.328;2022-11-12T12:34:23;1.87;;;1.77;;
47575;SDS011;33304;52.456;13.328;2022-11-12T12:37:14;2.00;;;1.80;;
47575;SDS011;33304;52.456;13.328;2022-11-12T12:40:10;2.63;;;1.70;;
47575;SDS011;33304;52.456;13.328;2022-11-12T12:43:03;3.87;;;1.97;;
47575;SDS011;33304;52.456;13.328;2022-11-12T12:45:55;2.03;;;1.93;;
47575;SDS011;33304;52.456;13.328;2022-11-12T12:48:42;3.50;;;2.40;;
47575;SDS011;33304;52.456;13.328;2022-11-12T12:51:30;2.20;;;2.00;;
47575;SDS011;33304;52.456;13.328;2022-11-12T12:57:39;1.97;;;1.77;;
47575;SDS011;33304;52.456;13.328;2022-11-12T13:00:26;1.70;;;1.60;;
47575;SDS011;33304;52.456;13.328;2022-11-12T13:06:50;2.33;;;2.13;;
47575;SDS011;33304;52.456;13.328;2022-11-12T13:09:37;1.90;;;1.77;;
47575;SDS011;33304;52.456;13.328;2022-11-12T13:15:40;1.70;;;1.53;;
47575;SDS011;33304;52.456;13.328;2022-11-12T13:21:45;3.87;;;2.10;;
47575;SDS011;33304;52.456;13.328;2022-11-12T13:28:05;2.33;;;2.13;;
47575;SDS011;33304;52.456;13.328;2022-11-12T13:31:00;2.63;;;2.42;;
47575;SDS011;33304;52.456;13.328;2022-11-12T13:33:47;2.38;;;2.22;;
47575;SDS011;33304;52.456;13.328;2022-11-12T13:36:35;3.10;;;2.90;;
47575;SDS011;33304;52.456;13.328;2022-11-12T13:39:21;4.65;;;4.35;;
47575;SDS011;33304;52.456;13.328;2022-11-12T13:42:09;3.47;;;3.25;;
47575;SDS011;33304;52.456;13.328;2022-11-12T13:45:15;2.80;;;2.63;;
47575;SDS011;33304;52.456;13.328;2022-11-12T13:48:04;3.65;;;3.38;;
47575;SDS011;33304;52.456;13.328;2022-11-12T13:50:51;2.83;;;2.40;;
47575;SDS011;33304;52.456;13.328;2022-11-12T13:53:42;2.38;;;2.17;;
47575;SDS011;33304;52.456;13.328;2022-11-12T13:56:29;2.43;;;2.33;;
47575;SDS011;33304;52.456;13.328;2022-11-12T13:59:17;1.63;;;1.53;;
47575;SDS011;33304;52.456;13.328;2022-11-12T14:02:04;2.20;;;2.10;;
47575;SDS011;33304;52.456;13.328;2022-11-12T14:05:02;2.33;;;2.13;;
47575;SDS011;33304;52.456;13.328;2022-11-12T14:08:03;2.40;;;2.20;;
47575;SDS011;33304;52.456;13.328;2022-11-12T14:11:03;2.43;;;2.23;;
47575;SDS011;33304;52.456;13.328;2022-11-12T14:14:01;2.17;;;1.97;;
47575;SDS011;33304;52.456;13.328;2022-11-12T14:16:59;3.43;;;1.70;;
47575;SDS011;33304;52.456;13.328;2022-11-12T14:23:08;2.80;;;1.77;;
47575;SDS011;33304;52.456;13.328;2022-11-12T14:25:56;1.60;;;1.50;;
47575;SDS011;33304;52.456;13.328;2022-11-12T14:28:43;2.17;;;1.80;;
47575;SDS011;33304;52.456;13.328;2022-11-12T14:31:29;2.53;;;2.10;;
47575;SDS011;33304;52.456;13.328;2022-11-12T14:34:18;2.33;;;1.67;;
47575;SDS011;33304;52.456;13.328;2022-11-12T14:37:04;1.73;;;1.60;;
47575;SDS011;33304;52.456;13.328;2022-11-12T14:39:50;2.23;;;2.10;;
47575;SDS011;33304;52.456;13.328;2022-11-12T14:42:36;2.47;;;1.87;;
47575;SDS011;33304;52.456;13.328;2022-11-12T14:45:23;2.53;;;1.80;;
47575;SDS011;33304;52.456;13.328;2022-11-12T14:48:08;1.87;;;1.77;;
47575;SDS011;33304;52.456;13.328;2022-11-12T14:50:56;2.30;;;2.10;;
47575;SDS011;33304;52.456;13.328;2022-11-12T14:53:47;2.73;;;1.50;;
47575;SDS011;33304;52.456;13.328;2022-11-12T14:56:38;1.80;;;1.70;;
47575;SDS011;33304;52.456;13.328;2022-11-12T14:59:26;2.23;;;1.73;;
47575;SDS011;33304;52.456;13.328;2022-11-12T15:02:15;2.03;;;1.87;;
47575;SDS011;33304;52.456;13.328;2022-11-12T15:05:10;2.70;;;1.80;;
47575;SDS011;33304;52.456;13.328;2022-11-12T15:07:58;2.03;;;1.83;;
47575;SDS011;33304;52.456;13.328;2022-11-12T15:10:45;2.17;;;1.97;;
47575;SDS011;33304;52.456;13.328;2022-11-12T15:13:36;2.20;;;1.93;;
47575;SDS011;33304;52.456;13.328;2022-11-12T15:16:24;1.67;;;1.57;;
47575;SDS011;33304;52.456;13.328;2022-11-12T15:19:18;3.63;;;2.10;;
47575;SDS011;33304;52.456;13.328;2022-11-12T15:22:15;1.97;;;1.70;;
47575;SDS011;33304;52.456;13.328;2022-11-12T15:25:17;1.50;;;1.40;;
47575;SDS011;33304;52.456;13.328;2022-11-12T15:28:11;2.13;;;1.93;;
47575;SDS011;33304;52.456;13.328;2022-11-12T15:31:04;4.40;;;1.80;;
47575;SDS011;33304;52.456;13.328;2022-11-12T15:33:51;2.03;;;1.83;;
47575;SDS011;33304;52.456;13.328;2022-11-12T15:36:40;1.97;;;1.53;;
47575;SDS011;33304;52.456;13.328;2022-11-12T15:39:26;1.93;;;1.60;;
47575;SDS011;33304;52.456;13.328;2022-11-12T15:42:14;3.17;;;1.70;;
47575;SDS011;33304;52.456;13.328;2022-11-12T15:45:02;2.00;;;1.57;;
47575;SDS011;33304;52.456;13.328;2022-11-12T15:47:49;5.13;;;2.13;;
47575;SDS011;33304;52.456;13.328;2022-11-12T15:50:35;2.30;;;1.67;;
47575;SDS011;33304;52.456;13.328;2022-11-12T15:53:23;2.10;;;1.67;;
47575;SDS011;33304;52.456;13.328;2022-11-12T15:56:08;1.90;;;1.80;;
47575;SDS011;33304;52.456;13.328;2022-11-12T15:58:56;2.23;;;1.63;;
47575;SDS011;33304;52.456;13.328;2022-11-12T16:01:42;4.43;;;1.60;;
47575;SDS011;33304;52.456;13.328;2022-11-12T16:04:28;4.57;;;2.83;;
47575;SDS011;33304;52.456;13.328;2022-11-12T16:07:14;2.13;;;1.73;;
47575;SDS011;33304;52.456;13.328;2022-11-12T16:10:01;2.87;;;1.77;;
47575;SDS011;33304;52.456;13.328;2022-11-12T16:12:47;2.40;;;1.60;;
47575;SDS011;33304;52.456;13.328;2022-11-12T16:15:35;3.10;;;2.83;;
47575;SDS011;33304;52.456;13.328;2022-11-12T16:18:21;2.43;;;1.80;;
47575;SDS011;33304;52.456;13.328;2022-11-12T16:21:07;3.43;;;3.13;;
47575;SDS011;33304;52.456;13.328;2022-11-12T16:23:53;2.87;;;2.07;;
47575;SDS011;33304;52.456;13.328;2022-11-12T16:26:39;3.33;;;2.57;;
47575;SDS011;33304;52.456;13.328;2022-11-12T16:29:25;3.13;;;2.10;;
47575;SDS011;33304;52.456;13.328;2022-11-12T16:32:12;4.40;;;2.20;;
47575;SDS011;33304;52.456;13.328;2022-11-12T16:34:58;2.90;;;2.13;;
47575;SDS011;33304;52.456;13.328;2022-11-12T16:37:44;4.67;;;2.57;;
47575;SDS011;33304;52.456;13.328;2022-11-12T16:40:30;1.80;;;1.70;;
47575;SDS011;33304;52.456;13.328;2022-11-12T16:43:18;3.13;;;2.83;;
47575;SDS011;33304;52.456;13.328;2022-11-12T16:46:05;2.70;;;2.43;;
47575;SDS011;33304;52.456;13.328;2022-11-12T16:48:58;2.43;;;2.23;;
47575;SDS011;33304;52.456;13.328;2022-11-12T16:51:43;3.10;;;2.60;;
47575;SDS011;33304;52.456;13.328;2022-11-12T16:54:29;2.77;;;1.80;;
47575;SDS011;33304;52.456;13.328;2022-11-12T16:57:15;3.80;;;2.70;;
47575;SDS011;33304;52.456;13.328;2022-11-12T17:00:03;3.23;;;2.53;;
47575;SDS011;33304;52.456;13.328;2022-11-12T17:02:50;2.33;;;2.03;;